createdAt,value
2019-04-27T14:04:36.586Z,98772.25
2019-04-27T14:05:08.307Z,98773.48
2019-04-27T14:10:10.482Z,98777.42
2019-04-27T14:10:42.470Z,98783.48
2019-04-27T14:11:14.073Z,98778.44
2019-04-27T14:11:48.140Z,98776.11
2019-04-27T14:12:21.208Z,98771.80
2019-04-27T14:12:53.958Z,98765.04
2019-04-27T14:16:44.229Z,98766.95
2019-04-27T14:17:15.360Z,98773.59
2019-04-27T14:17:47.557Z,98774.22
2019-04-27T14:20:16.124Z,98789.45
2019-04-27T14:20:48.793Z,98781.82
2019-04-27T14:21:21.203Z,98781.82
2019-04-27T14:21:54.335Z,98781.28
2019-04-27T14:22:28.076Z,98780.78
2019-04-27T14:23:03.521Z,98780.73
2019-04-27T14:23:35.067Z,98774.30
2019-04-27T14:27:54.948Z,98783.20
2019-04-27T14:31:58.712Z,98784.68
2019-04-27T14:36:00.663Z,98789.57
2019-04-27T14:40:03.338Z,98790.73
2019-04-27T14:44:08.324Z,98790.98
2019-04-27T14:48:12.955Z,98786.23
2019-04-27T14:52:18.841Z,98784.59
2019-04-27T14:56:25.157Z,98779.42
2019-04-27T15:00:30.639Z,98776.09
2019-04-27T15:04:39.317Z,98784.21
2019-04-27T15:08:43.635Z,98782.47
2019-04-27T15:12:48.312Z,98783.05
2019-04-27T15:16:52.788Z,98780.73
2019-04-27T15:20:58.465Z,98772.45
2019-04-27T15:25:11.971Z,98767.76
2019-04-27T15:29:11.966Z,98769.80
2019-04-27T15:33:17.705Z,98765.84
2019-04-27T15:37:22.347Z,98777.54
2019-04-27T15:41:31.374Z,98774.58
2019-04-27T15:45:35.212Z,98787.64
2019-04-27T15:49:49.937Z,98790.72
2019-04-27T15:53:52.534Z,98783.59
2019-04-27T15:57:54.769Z,98792.68
2019-04-27T16:02:05.470Z,98787.28
2019-04-27T16:06:11.926Z,98800.42
2019-04-27T16:10:17.710Z,98810.62
2019-04-27T16:14:22.696Z,98814.78
2019-04-27T16:18:29.220Z,98816.98
2019-04-27T16:22:33.979Z,98830.02
2019-04-27T16:26:41.851Z,98838.66
2019-04-27T16:30:50.611Z,98828.55
2019-04-27T16:34:51.897Z,98844.65
2019-04-27T16:38:56.450Z,98859.50
2019-04-27T16:43:00.737Z,98873.14
2019-04-27T16:47:05.175Z,98894.23
2019-04-27T16:51:10.727Z,98897.98
2019-04-27T16:55:17.414Z,98901.86
2019-04-27T16:59:39.203Z,98901.04
2019-04-27T17:03:31.569Z,98913.84
2019-04-27T17:07:37.517Z,98921.94
2019-04-27T17:11:43.917Z,98923.83
2019-04-27T17:15:46.235Z,98929.67
2019-04-27T17:19:54.793Z,98923.76
2019-04-27T17:24:02.972Z,98926.14
2019-04-27T17:28:05.253Z,98924.10
2019-04-27T17:32:09.960Z,98935.19
2019-04-27T17:36:16.242Z,98932.15
2019-04-27T17:40:20.514Z,98941.54
2019-04-27T17:44:24.658Z,98946.08
2019-04-27T17:48:28.958Z,98949.52
2019-04-27T17:52:33.130Z,98954.28
2019-04-27T17:56:48.305Z,98955.27
2019-04-27T18:00:44.690Z,98962.53
2019-04-27T18:04:49.082Z,98972.11
2019-04-27T18:08:54.985Z,98977.81
2019-04-27T18:12:59.040Z,98975.94
2019-04-27T18:17:03.705Z,98978.46
2019-04-27T18:21:09.235Z,98980.98
2019-04-27T18:25:13.516Z,98988.27
2019-04-27T18:29:18.525Z,98990.09
2019-04-27T18:33:22.864Z,98999.44
2019-04-27T18:37:28.281Z,99001.20
2019-04-27T18:41:32.742Z,99011.36
2019-04-27T18:45:38.053Z,99031.84
2019-04-27T18:49:44.057Z,99041.70
2019-04-27T18:53:49.872Z,99052.20
2019-04-27T18:57:54.616Z,99066.60
2019-04-27T19:01:58.748Z,99065.47
2019-04-27T19:06:03.090Z,99070.68
2019-04-27T19:10:08.965Z,99070.57
2019-04-27T19:14:13.399Z,99071.48
2019-04-27T19:18:18.807Z,99084.95
2019-04-27T19:22:24.540Z,99080.16
2019-04-27T19:26:28.986Z,99084.69
2019-04-27T19:30:33.204Z,99089.34
2019-04-27T19:34:38.837Z,99094.44
2019-04-27T19:38:43.594Z,99086.23
2019-04-27T19:42:48.750Z,99100.27
2019-04-27T19:46:53.124Z,99091.28
2019-04-27T19:51:00.207Z,99112.29
2019-04-27T19:55:04.892Z,99107.45
2019-04-27T19:59:09.303Z,99112.42
2019-04-27T20:03:13.703Z,99114.16
2019-04-27T20:07:18.453Z,99117.07
2019-04-27T20:11:23.059Z,99117.77
2019-04-27T20:15:27.946Z,99120.39
2019-04-27T20:19:32.391Z,99121.59
2019-04-27T20:23:37.509Z,99132.48
2019-04-27T20:27:46.997Z,99135.89
2019-04-27T20:31:48.210Z,99136.92
2019-04-27T20:35:53.124Z,99137.41
2019-04-27T20:39:57.782Z,99137.09
2019-04-27T20:44:05.640Z,99125.84
2019-04-27T20:48:11.201Z,99135.53
2019-04-27T20:52:16.071Z,99132.59
2019-04-27T20:56:20.187Z,99134.78
2019-04-27T21:00:24.554Z,99140.52
2019-04-27T21:04:30.828Z,99137.50
2019-04-27T21:08:34.655Z,99140.80
2019-04-27T21:12:37.152Z,99139.48
2019-04-27T21:16:39.010Z,99144.75
2019-04-27T21:20:41.281Z,99151.09
2019-04-27T21:24:43.589Z,99151.44
2019-04-27T21:28:45.727Z,99156.47
2019-04-27T21:32:47.324Z,99157.33
2019-04-27T21:36:50.925Z,99153.05
2019-04-27T21:40:52.830Z,99159.74
2019-04-27T21:44:54.756Z,99154.09
2019-04-27T21:48:56.724Z,99164.77
2019-04-27T21:52:58.508Z,99166.96
2019-04-27T21:57:00.724Z,99166.03
2019-04-27T22:01:02.725Z,99173.52
2019-04-27T22:05:04.479Z,99173.69
2019-04-27T22:09:10.673Z,99173.98
2019-04-27T22:13:12.404Z,99179.64
2019-04-27T22:17:14.036Z,99184.72
2019-04-27T22:21:15.708Z,99193.72
2019-04-27T22:25:17.436Z,99195.42
2019-04-27T22:29:19.049Z,99195.42
2019-04-27T22:33:21.485Z,99191.83
2019-04-27T22:37:23.475Z,99201.02
2019-04-27T22:41:25.209Z,99198.00
2019-04-27T22:45:27.050Z,99206.56
2019-04-27T22:49:28.747Z,99202.86
2019-04-27T22:53:32.428Z,99214.64
2019-04-27T22:57:34.072Z,99210.47
2019-04-27T23:01:35.640Z,99217.44
2019-04-27T23:05:37.316Z,99217.03
2019-04-27T23:09:40.778Z,99213.09
2019-04-27T23:13:44.436Z,99218.40
2019-04-27T23:17:46.305Z,99219.33
2019-04-27T23:21:48.013Z,99221.84
2019-04-27T23:25:51.341Z,99215.48
2019-04-27T23:29:53.133Z,99223.13
2019-04-27T23:33:54.707Z,99226.70
2019-04-27T23:37:56.858Z,99230.56
2019-04-27T23:41:58.583Z,99232.30
2019-04-27T23:46:01.579Z,99222.05
2019-04-27T23:50:03.781Z,99219.41
2019-04-27T23:54:05.376Z,99220.88
2019-04-27T23:58:06.941Z,99217.72
